WEATHER DATA

YESTERDAY
Time Temp. Dewp. Hum. Wind dir Wind speed Wind gust Bar. 1h Prec. 24h Prec.
00:04 13.9 10.7 81 225 0.3 0.6 1016.4 0.0000 0.0000
00:13 13.8 10.8 82 225 0.3 0.6 1016.4 0.0000 0.0000
00:24 13.6 10.6 82 225 0.3 0.3 1016.3 0.0000 0.0000
00:34 13.6 10.6 82 225 0.3 0.6 1016.2 0.0000 0.0000
00:44 13.5 10.7 83 237 0.3 0.3 1016.2 0.0000 0.0000
00:54 13.4 10.6 83 270 0.3 0.6 1016.2 0.0000 0.0000
01:04 13.4 10.6 83 0 0.3 1016.1 0.0000 0.0000
01:14 13.3 10.5 83 270 0.3 0.3 1015.9 0.0000 0.0000
01:24 13.3 10.7 84 237 0.3 0.6 1015.8 0.0000 0.0000
01:35 13.3 10.7 84 270 0.3 0.3 1015.7 0.0000 0.0000
01:44 13.2 10.6 84 270 0.3 0.3 1015.5 0.0000 0.0000
01:54 13.1 10.5 84 0 0.3 1015.6 0.0000 0.0000
02:05 13 10.4 84 0 0.3 1015.6 0.0000 0.0000
02:15 13 10.5 85 0 0.3 1015.6 0.0000 0.0000
02:24 12.9 10.4 85 0 0.3 1015.4 0.0000 0.0000
02:34 12.9 10.4 85 0 0.3 1015.5 0.0000 0.0000
02:45 12.8 10.3 85 0 0.3 1015.5 0.0000 0.0000
02:55 12.7 10.2 85 0 0.3 1015.3 0.0000 0.0000
03:04 12.7 10.2 85 0 0.3 1015.4 0.0000 0.0000
03:15 12.7 10.2 85 0 0.3 1015.3 0.0000 0.0000
03:25 12.6 10.3 86 233 0.3 0.3 1015.3 0.0000 0.0000
03:40 12.6 10.1 85 0 0.3 1015.2 0.0000 0.0000
03:55 12.5 10.2 86 232 0.3 0.3 1015 0.0000 0.0000
04:10 12.5 10.2 86 0 0.3 1015.1 0.0000 0.0000
04:20 12.4 10.1 86 0 0.3 1015.2 0.0000 0.0000
04:30 12.3 10 86 0 0.3 1015.1 0.0000 0.0000
04:40 12.3 10 86 0 0.3 1015.2 0.0000 0.0000
04:50 12.3 10 86 0 0.3 1015.2 0.0000 0.0000
05:01 12.3 10 86 0 0.3 1015.1 0.0000 0.0000
05:10 12.2 9.9 86 0 0.3 1015 0.0000 0.0000
05:20 12.3 10 86 232 0.3 0.3 1015 0.0000 0.0000
05:41 12.3 10.2 87 225 0.3 0.3 1015 0.0000 0.0000
05:50 12.4 10.3 87 0 0.3 1014.7 0.0000 0.0000
06:00 12.4 10.3 87 0 0.3 1014.8 0.0000 0.0000
06:11 12.5 10.4 87 0 0.3 1014.8 0.0000 0.0000
06:21 12.5 10.4 87 0 0.3 1014.7 0.0000 0.0000
06:30 12.6 10.5 87 0 0.3 1014.7 0.0000 0.0000
06:41 12.7 10.6 87 270 0.3 0.6 1014.5 0.0000 0.0000
06:51 12.8 10.7 87 237 0.3 0.3 1014.5 0.0000 0.0000
07:10 13 10.9 87 0 0.3 1014.3 0.0000 0.0000
07:31 13 10.9 87 270 0.3 0.3 1014.1 0.0000 0.0000
07:41 13.1 10.8 86 0 0.3 1014.3 0.0000 0.0000
07:51 13.3 11.2 87 270 0.3 0.3 1014.3 0.0000 0.0000
08:01 13.5 11.2 86 0 0.6 1014.4 0.0000 0.0000
08:21 13.7 11.2 85 270 0.3 0.6 1014.2 0.0000 0.0000
08:31 13.8 11.3 85 239 0.3 0.3 1014 0.0000 0.0000
08:41 13.9 11.4 85 0 0.3 1014.1 0.0000 0.0000
08:51 14.2 11.7 85 0 0.6 1014.2 0.0000 0.0000
09:12 14.7 11.8 83 0 0.3 1013.9 0.0000 0.0000
09:21 14.8 11.9 83 0 0.3 1013.9 0.0000 0.0000
09:31 14.9 11.9 82 270 0.3 0.6 1013.7 0.0000 0.0000
09:52 14.9 11.9 82 0 0.3 1013.7 0.0000 0.0000
10:01 14.9 11.9 82 0 0.6 1013.6 0.0000 0.0000
10:12 15.4 12.5 83 0 0.3 1013.4 0.0000 0.0000
10:22 16.2 13.1 82 0 0.3 1013.5 0.0000 0.0000
10:32 17.4 13.5 78 0 0.6 1013.5 0.0000 0.0000
10:52 19 14.7 76 225 0.3 0.6 1013.4 0.0000 0.0000
11:02 19.9 14.7 72 240 0.3 0.6 1013.4 0.0000 0.0000
11:12 20.6 14.5 68 270 0.3 0.6 1013.2 0.0000 0.0000
11:22 20.8 14 65 270 0.3 0.6 1013.1 0.0000 0.0000
11:32 20.9 14.3 66 270 0.3 0.6 1013.2 0.0000 0.0000
11:42 21 14.4 66 231 0.3 0.6 1013.1 0.0000 0.0000
11:52 20.8 13.7 64 237 0.3 0.6 1013.1 0.0000 0.0000
12:02 20.5 13.9 66 0 0.6 1013.1 0.0000 0.0000
12:12 20.2 13.4 65 225 0.3 0.6 1012.9 0.0000 0.0000
12:22 19.9 13.4 66 237 0.3 0.6 1012.9 0.0000 0.0000
12:33 19.7 13.4 67 270 0.3 0.6 1012.9 0.0000 0.0000
12:43 19.7 13.6 68 239 0.3 0.6 1012.8 0.0000 0.0000
12:52 19.7 13.9 69 270 0.3 0.6 1012.8 0.0000 0.0000
13:02 19.8 13.5 67 0 0.6 1012.7 0.0000 0.0000
13:13 19.8 13.5 67 240 0.3 0.3 1012.7 0.0000 0.0000
13:23 19.9 13.6 67 270 0.3 0.6 1012.5 0.0000 0.0000
13:32 20.1 13.8 67 270 0.3 0.6 1012.5 0.0000 0.0000
13:43 20.2 13.9 67 270 0.3 0.3 1012.5 0.0000 0.0000
13:53 20.1 13.3 65 270 0.3 0.3 1012.5 0.0000 0.0000
14:03 20.1 13.6 66 0 0.3 1012.4 0.0000 0.0000
14:13 20.1 13.3 65 270 0.3 0.6 1012.4 0.0000 0.0000
14:23 20 13.5 66 225 0.3 0.6 1012.4 0.0000 0.0000
14:33 20 13.7 67 270 0.3 0.3 1012.4 0.0000 0.0000
14:43 20 13.5 66 239 0.3 0.6 1012.4 0.0000 0.0000
14:53 20 13.5 66 225 0.3 0.6 1012.4 0.0000 0.0000
15:03 20 13.2 65 0 0.3 1012.4 0.0000 0.0000
15:13 20.1 13.6 66 230 0.3 0.6 1012.3 0.0000 0.0000
15:23 20.1 13.6 66 270 0.3 0.6 1012.2 0.0000 0.0000
15:33 20.2 13.7 66 270 0.3 0.6 1012.1 0.0000 0.0000
15:43 20.3 13.3 64 240 0.3 0.6 1012.1 0.0000 0.0000
15:53 20.2 13.4 65 239 0.3 0.6 1012 0.0000 0.0000
16:04 20.2 13.2 64 270 0.3 0.3 1011.9 0.0000 0.0000
16:13 20.3 13.5 65 239 0.3 0.6 1011.8 0.0000 0.0000
16:23 20.5 13.5 64 240 0.3 0.6 1011.8 0.0000 0.0000
16:34 20.5 13.7 65 270 0.3 0.6 1011.8 0.0000 0.0000
16:44 20.4 13.6 65 270 0.3 0.6 1011.8 0.0000 0.0000
16:53 20.5 13.7 65 233 0.3 0.6 1011.7 0.0000 0.0000
17:03 20.5 13.9 66 270 0.3 0.6 1011.8 0.0000 0.0000
17:14 20.5 13.9 66 270 0.3 0.6 1011.7 0.0000 0.0000
17:24 20.3 13.3 64 270 0.3 0.6 1011.7 0.0000 0.0000
17:33 20.3 13.7 66 225 0.3 0.6 1011.8 0.0000 0.0000
17:44 20.3 13.5 65 210 0.3 0.6 1011.7 0.0000 0.0000
17:54 20.2 13.9 67 240 0.3 0.3 1011.6 0.0000 0.0000
18:04 20.2 13.9 67 218 0.3 0.6 1011.7 0.0000 0.0000
18:13 20 14.4 70 225 0.3 0.6 1011.4 0.0000 0.0000
18:24 19.8 13.7 68 218 0.3 0.6 1011.5 0.0000 0.0000
18:34 19.8 14.2 70 204 0.3 0.6 1011.5 0.0000 0.0000
18:44 19.8 13.7 68 217 0.3 0.6 1011.4 0.0000 0.0000
18:54 19.8 14 69 218 0.3 0.8 1011.5 0.0000 0.0000
19:04 19.6 14.4 72 210 0.3 0.6 1011.5 0.0000 0.0000
19:14 19.4 14.4 73 232 0.3 0.6 1011.6 0.0000 0.0000
19:24 19.2 14.5 74 237 0.3 0.6 1011.7 0.0000 0.0000
19:34 19.1 14.2 73 231 0.3 0.6 1011.6 0.0000 0.0000
19:44 18.9 13.5 71 236 0.3 0.6 1011.4 0.0000 0.0000
19:54 18.8 14.1 74 270 0.3 0.3 1011.4 0.0000 0.0000
20:05 18.8 13.7 72 270 0.3 0.6 1011.5 0.0000 0.0000
20:15 18.6 13.9 74 270 0.3 0.3 1011.7 0.0000 0.0000
20:24 18.4 13.9 75 0 0.3 1011.8 0.0000 0.0000
20:34 18.4 13.9 75 270 0.3 0.6 1012 0.0000 0.0000
20:45 18.3 13.8 75 239 0.3 0.3 1011.9 0.0000 0.0000
20:55 18.2 13.7 75 270 0.3 0.3 1011.7 0.0000 0.0000
21:10 18.1 13.4 74 270 0.3 0.6 1011.4 0.0000 0.0000
21:25 18.1 13.4 74 0 0.6 1011.4 0.0000 0.0000
21:40 17.9 13.8 77 216 0.3 0.3 1011.8 0.0000 0.0000
21:50 17.7 13.6 77 232 0.3 0.6 1011.8 0.0000 0.0000
22:00 17.6 13.7 78 0 0.3 1011.6 0.0000 0.0000
22:10 17.5 13.8 79 0 0.3 1011.5 0.0000 0.0000
22:20 17.3 13.6 79 0 0.3 1011.5 0.0000 0.0000
22:40 17.2 13.5 79 230 0.3 0.6 1011.7 0.0000 0.0000
22:50 17.1 13.4 79 270 0.3 0.6 1011.5 0.0000 0.0000
23:01 17 13.3 79 270 0.3 0.3 1011.3 0.0000 0.0000
23:10 17 13.3 79 270 0.3 0.3 1011.3 0.0000 0.0000
23:20 16.9 13.4 80 270 0.3 0.6 1011.3 0.0000 0.0000
23:30 16.8 13.3 80 270 0.3 0.6 1011.3 0.0000 0.0000
23:41 16.8 13.3 80 270 0.3 0.3 1011.2 0.0000 0.0000
23:50 16.8 13.5 81 0 0.3 1011.2 0.0000 0.0000

DAY STATISTIC

2018-07-20
TEMPERATURE
AVERAGE
16.8
HIGH
21.0
11:42
LOW
12.2
05:10
PRESSURE
AVERAGE
1013.3
HIGH
1016.4
00:04
LOW
1011.2
23:41
DEWPOINT
AVERAGE
12.5
HIGH
14.7
10:52
LOW
9.9
05:10
HUMIDITY
AVERAGE
76
HIGH
87
05:41
LOW
64
11:52
WIND SPEED
AVERAGE
0.2
HIGH
0.3
00:04
WIND GUST
AVERAGE
0.5
HIGH
0.8
18:54
WIND DIRECTION
PREVAILING
SW
34.8%
N
0.0
NE
0.0
E
0.0
SE
0.0
S
0.8
SW
34.8
W
30.3
NW
0.0
PRECIPITATION
RAIN HOUR
0.0
RAIN DAY
0.0
TEMPERATURE (°C)
LOW
12.2
HIGH
21.0
AVERAGE
16.8
PRESSURE (hpa)
LOW
1011.2
HIGH
1016.4
AVERAGE
1013.3
DEVICE